Time;durP1;ratioP1;P1;durP2;ratioP2;P2;SDS_P1;SDS_P2;PMS_P1;PMS_P2;Temp;Humidity;BMP_temperature;BMP_pressure;BME280_temperature;BME280_humidity;BME280_pressure;Samples;Min_cycle;Max_cycle;Signal;HPM_P1;HPM_P2
2022/12/08 00:00:46;;;;;;;26.88;14.90;;;-0.20;99.90;;;;;;5039714;28;20057;-52
2022/12/08 00:03:12;;;;;;;31.23;16.80;;;-0.10;99.90;;;;;;5046336;28;20063;-42
2022/12/08 00:11:12;;;;;;;36.97;18.38;;;-0.10;99.90;;;;;;5045641;28;20270;-47
2022/12/08 00:13:38;;;;;;;36.28;18.85;;;0.20;99.90;;;;;;5040453;28;20513;-52
2022/12/08 00:16:04;;;;;;;41.17;18.38;;;0.30;99.90;;;;;;5043156;28;20484;-54
2022/12/08 00:18:29;;;;;;;33.47;18.17;;;0.30;99.90;;;;;;5050053;28;20033;-45
2022/12/08 00:20:56;;;;;;;37.67;18.40;;;0.40;99.90;;;;;;5043175;28;20428;-44
2022/12/08 00:23:22;;;;;;;30.95;18.65;;;0.40;99.90;;;;;;5063764;28;20029;-45
2022/12/08 00:25:47;;;;;;;37.20;18.88;;;0.40;99.90;;;;;;5037178;28;20060;-46
2022/12/08 00:28:13;;;;;;;29.13;17.52;;;0.40;99.90;;;;;;5035054;28;20025;-40
2022/12/08 00:30:40;;;;;;;32.13;18.02;;;0.50;99.90;;;;;;5046285;28;20029;-45
2022/12/08 00:33:05;;;;;;;35.78;18.42;;;0.50;99.90;;;;;;5032167;28;20026;-47
2022/12/08 00:35:31;;;;;;;38.53;17.45;;;0.50;99.90;;;;;;5037433;28;20043;-44
2022/12/08 00:37:56;;;;;;;34.28;18.73;;;0.50;99.90;;;;;;5030440;28;20084;-43
2022/12/08 00:40:22;;;;;;;28.92;17.50;;;0.50;99.90;;;;;;5030441;28;20033;-47
2022/12/08 00:42:47;;;;;;;31.88;18.10;;;0.50;99.90;;;;;;5030216;28;20557;-48
2022/12/08 00:45:13;;;;;;;30.38;17.15;;;0.40;99.90;;;;;;5030075;28;20032;-45
2022/12/08 00:47:39;;;;;;;29.60;17.08;;;0.30;99.90;;;;;;5029822;28;20372;-49
2022/12/08 00:50:05;;;;;;;33.33;17.60;;;0.20;99.90;;;;;;5030450;28;20081;-43
2022/12/08 00:52:31;;;;;;;34.58;18.20;;;0.10;99.90;;;;;;5030614;28;20056;-41
2022/12/08 00:54:57;;;;;;;31.05;16.30;;;0.10;99.90;;;;;;5033449;28;20049;-41
2022/12/08 00:57:22;;;;;;;34.63;17.08;;;0.10;99.90;;;;;;5036187;28;20103;-46
2022/12/08 00:59:48;;;;;;;30.70;16.90;;;0.00;99.90;;;;;;5046414;28;20477;-47
2022/12/08 01:02:14;;;;;;;30.75;16.42;;;0.00;99.90;;;;;;5036862;28;20052;-49
2022/12/08 01:04:40;;;;;;;30.73;16.02;;;0.00;99.90;;;;;;5028542;28;20018;-40
2022/12/08 01:07:06;;;;;;;28.00;15.93;;;0.00;99.90;;;;;;5030260;28;20392;-41
2022/12/08 01:09:32;;;;;;;30.02;16.42;;;0.00;99.90;;;;;;5029230;28;20013;-44
2022/12/08 01:11:58;;;;;;;33.78;15.95;;;-0.10;99.90;;;;;;5031274;28;20033;-45
2022/12/08 01:14:24;;;;;;;28.75;15.90;;;-0.20;99.90;;;;;;5030614;28;20017;-50
2022/12/08 01:16:50;;;;;;;27.38;15.88;;;-0.20;99.90;;;;;;5034797;28;20067;-48
2022/12/08 01:19:16;;;;;;;31.27;16.55;;;-0.20;99.90;;;;;;5030401;28;20032;-51
2022/12/08 01:21:43;;;;;;;34.50;16.70;;;-0.30;99.90;;;;;;5034318;28;20175;-48
2022/12/08 01:24:11;;;;;;;29.65;17.10;;;-0.30;99.90;;;;;;5041523;28;20357;-55
2022/12/08 01:26:37;;;;;;;31.00;15.68;;;-0.40;99.90;;;;;;5026989;28;20028;-41
2022/12/08 01:29:02;;;;;;;31.40;16.45;;;-0.40;99.90;;;;;;5029147;28;20022;-47
2022/12/08 01:31:28;;;;;;;28.17;14.98;;;-0.40;99.90;;;;;;5030943;28;20091;-48
2022/12/08 01:33:53;;;;;;;30.90;15.00;;;-0.50;99.90;;;;;;5030058;28;20075;-53
2022/12/08 01:36:28;;;;;;;32.13;16.05;;;-0.50;99.90;;;;;;5044954;28;20024;-57
2022/12/08 01:38:57;;;;;;;30.15;15.32;;;-0.60;99.90;;;;;;5035407;28;20018;-47
2022/12/08 01:41:24;;;;;;;29.38;15.45;;;-0.60;99.90;;;;;;5039147;28;20056;-48
2022/12/08 01:43:53;;;;;;;31.98;16.23;;;-0.70;99.90;;;;;;5031505;28;20021;-53
2022/12/08 01:46:19;;;;;;;26.05;15.13;;;-0.70;99.90;;;;;;5024205;28;20052;-57
2022/12/08 01:48:44;;;;;;;30.63;15.82;;;-0.70;99.90;;;;;;5030387;28;20473;-52
2022/12/08 01:51:10;;;;;;;30.63;15.65;;;-0.70;99.90;;;;;;5034822;28;20103;-52
2022/12/08 01:53:37;;;;;;;28.55;15.43;;;-1.70;99.90;;;;;;5031280;28;20032;-48
2022/12/08 01:56:10;;;;;;;28.45;14.55;;;-0.80;99.90;;;;;;5029628;28;20053;-43
2022/12/08 01:58:41;;;;;;;28.75;15.38;;;-0.90;99.90;;;;;;5031016;28;20053;-40
2022/12/08 02:01:07;;;;;;;33.78;17.02;;;-0.80;99.90;;;;;;5027963;28;20495;-46
2022/12/08 02:03:57;;;;;;;28.15;14.32;;;-0.90;99.90;;;;;;5030482;28;20125;-50
2022/12/08 02:06:22;;;;;;;;;;;-0.90;99.90;;;;;;5036220;28;20017;-43
2022/12/08 02:08:49;;;;;;;29.02;14.15;;;-0.90;99.90;;;;;;5040784;28;19962;-51
2022/12/08 02:11:15;;;;;;;32.13;15.63;;;-1.00;99.90;;;;;;5028242;28;20026;-47
2022/12/08 02:13:43;;;;;;;30.35;15.45;;;-1.00;99.90;;;;;;5029324;28;20024;-44
2022/12/08 02:16:27;;;;;;;32.50;15.40;;;-1.00;99.90;;;;;;5032297;28;20337;-43
2022/12/08 02:19:22;;;;;;;28.75;15.88;;;-1.10;99.90;;;;;;5030000;28;20067;-46
2022/12/08 02:22:00;;;;;;;31.63;16.67;;;-1.10;99.90;;;;;;5031645;28;20460;-42
2022/12/08 02:24:49;;;;;;;31.33;15.68;;;-1.20;99.90;;;;;;5029036;28;20033;-47
2022/12/08 02:27:51;;;;;;;31.00;16.37;;;-1.10;99.90;;;;;;5028497;28;20045;-47
2022/12/08 02:30:41;;;;;;;30.02;15.82;;;-1.20;99.90;;;;;;5022128;28;20282;-50
2022/12/08 02:33:36;;;;;;;28.17;15.60;;;-1.30;99.90;;;;;;5030786;28;20021;-52
2022/12/08 02:36:13;;;;;;;30.58;15.88;;;-1.40;99.90;;;;;;5031572;28;20044;-52
2022/12/08 02:38:45;;;;;;;30.73;15.55;;;-1.40;99.90;;;;;;5045305;28;20074;-48
2022/12/08 02:41:46;;;;;;;31.90;16.63;;;-1.40;99.90;;;;;;5037829;28;20048;-51
2022/12/08 02:44:21;;;;;;;29.83;15.15;;;-1.40;99.90;;;;;;5037134;28;20387;-44
2022/12/08 02:46:54;;;;;;;28.17;14.25;;;-1.40;99.90;;;;;;5032898;28;20163;-49
2022/12/08 02:49:20;;;;;;;29.63;14.90;;;-1.40;99.90;;;;;;5032835;28;20067;-60
2022/12/08 02:51:46;;;;;;;27.73;15.25;;;-1.40;99.90;;;;;;5047255;28;20032;-51
2022/12/08 02:54:13;;;;;;;29.23;15.43;;;-1.40;99.90;;;;;;5037954;28;20066;-44
2022/12/08 02:57:08;;;;;;;35.45;16.02;;;-1.50;99.90;;;;;;5040007;28;20192;-41
2022/12/08 02:59:48;;;;;;;33.22;16.88;;;-1.50;99.90;;;;;;5037969;28;20387;-40
2022/12/08 03:02:23;;;;;;;32.15;16.77;;;-1.50;99.90;;;;;;5032652;28;20095;-47
2022/12/08 03:05:08;;;;;;;28.05;15.82;;;-1.60;99.90;;;;;;5037639;28;20045;-48
2022/12/08 03:07:38;;;;;;;28.15;15.90;;;-1.60;99.90;;;;;;5031699;28;20362;-44
2022/12/08 03:10:22;;;;;;;34.88;16.48;;;-1.70;99.90;;;;;;5034980;28;20082;-50
2022/12/08 03:12:55;;;;;;;31.63;15.75;;;-1.60;99.90;;;;;;5050552;28;20419;-48
2022/12/08 03:15:21;;;;;;;27.55;15.10;;;-1.70;99.90;;;;;;5032449;28;20029;-49
2022/12/08 03:17:56;;;;;;;32.38;15.57;;;-2.10;99.90;;;;;;5033681;28;20092;-47
2022/12/08 03:20:24;;;;;;;28.45;14.57;;;-1.70;99.90;;;;;;5032795;28;20117;-50
2022/12/08 03:22:52;;;;;;;27.95;15.68;;;-1.70;99.90;;;;;;5032088;28;20061;-40
2022/12/08 03:25:21;;;;;;;33.20;15.88;;;-1.70;99.90;;;;;;5034649;28;20018;-49
2022/12/08 03:27:48;;;;;;;33.83;16.45;;;-1.70;99.90;;;;;;5035956;28;20034;-52
2022/12/08 03:30:14;;;;;;;33.22;16.60;;;-1.70;99.90;;;;;;5033288;28;20100;-50
2022/12/08 03:32:49;;;;;;;30.58;14.95;;;-1.70;99.90;;;;;;5043131;28;20100;-43
2022/12/08 03:35:28;;;;;;;31.25;15.57;;;-1.80;99.90;;;;;;5031987;28;20017;-46
2022/12/08 03:38:06;;;;;;;28.60;15.02;;;-1.70;99.90;;;;;;5045498;28;20033;-51
2022/12/08 03:40:32;;;;;;;28.27;15.27;;;-1.80;99.90;;;;;;5028653;28;20116;-40
2022/12/08 03:42:57;;;;;;;31.45;14.77;;;-1.70;99.90;;;;;;5030613;28;20448;-40
2022/12/08 03:45:23;;;;;;;28.58;14.70;;;-1.70;99.90;;;;;;5033375;28;20021;-51
2022/12/08 03:47:49;;;;;;;31.83;15.10;;;-1.60;99.90;;;;;;5046502;28;20032;-51
2022/12/08 03:50:15;;;;;;;31.15;16.30;;;-1.70;99.90;;;;;;5039507;28;20029;-51
2022/12/08 03:52:40;;;;;;;31.30;16.40;;;-1.70;99.90;;;;;;5030840;28;20013;-46
2022/12/08 03:55:07;;;;;;;28.88;15.60;;;-1.70;99.90;;;;;;5030358;28;20503;-56
2022/12/08 03:57:32;;;;;;;30.27;15.43;;;-1.70;99.90;;;;;;5032974;28;20052;-45
2022/12/08 03:59:58;;;;;;;28.27;14.88;;;-1.80;99.90;;;;;;5033109;28;20034;-51
2022/12/08 04:02:23;;;;;;;29.38;15.52;;;-1.80;99.90;;;;;;5032851;28;20084;-48
2022/12/08 04:04:49;;;;;;;30.80;14.93;;;-1.80;99.90;;;;;;5032946;28;20093;-54
2022/12/08 04:07:15;;;;;;;30.60;15.75;;;-1.90;99.90;;;;;;5032922;28;20108;-42
2022/12/08 04:09:40;;;;;;;27.83;15.10;;;-1.90;99.90;;;;;;5032559;28;20037;-47
2022/12/08 04:12:07;;;;;;;25.95;14.15;;;-1.90;99.90;;;;;;5032806;28;20079;-48
2022/12/08 04:14:33;;;;;;;28.85;13.48;;;-1.90;99.90;;;;;;5032780;28;20119;-44
2022/12/08 04:16:58;;;;;;;30.23;14.77;;;-2.00;99.90;;;;;;5032768;28;20025;-45
2022/12/08 04:19:24;;;;;;;24.10;13.30;;;-2.00;99.90;;;;;;5032748;28;20037;-48
2022/12/08 04:21:49;;;;;;;28.35;13.77;;;-2.00;99.90;;;;;;5032397;28;20037;-53
2022/12/08 04:24:15;;;;;;;33.17;14.77;;;-2.10;99.90;;;;;;5032407;28;20021;-46
2022/12/08 04:26:41;;;;;;;32.03;16.23;;;-2.10;99.90;;;;;;5032405;28;20048;-49
2022/12/08 04:29:06;;;;;;;31.00;16.00;;;-2.20;99.90;;;;;;5032567;28;20366;-41
2022/12/08 04:31:32;;;;;;;34.03;16.10;;;-2.20;99.90;;;;;;5032544;28;20033;-44
2022/12/08 04:33:57;;;;;;;29.23;15.75;;;-2.40;99.90;;;;;;5032322;28;20022;-54
2022/12/08 04:36:23;;;;;;;27.00;13.65;;;-2.30;99.90;;;;;;5032691;28;20087;-56
2022/12/08 04:38:49;;;;;;;30.75;15.73;;;-2.30;99.90;;;;;;5032321;28;20052;-52
2022/12/08 04:41:14;;;;;;;25.38;14.25;;;-2.30;99.90;;;;;;5032079;28;20111;-42
2022/12/08 04:43:43;;;;;;;31.20;16.05;;;-2.30;99.90;;;;;;5029710;28;20108;-50
2022/12/08 04:46:09;;;;;;;32.13;16.48;;;-2.40;99.90;;;;;;5031795;28;20441;-45
2022/12/08 04:48:37;;;;;;;33.33;16.52;;;-2.40;99.90;;;;;;5031687;28;20111;-48
2022/12/08 04:51:03;;;;;;;30.20;16.10;;;-2.30;99.90;;;;;;5032074;28;20018;-53
2022/12/08 04:53:28;;;;;;;31.65;15.68;;;-2.30;99.90;;;;;;5031250;28;20029;-42
2022/12/08 04:55:54;;;;;;;32.13;16.60;;;-2.30;99.90;;;;;;5031298;28;20041;-53
2022/12/08 04:58:20;;;;;;;31.95;15.50;;;-2.20;99.90;;;;;;5031629;28;20033;-56
2022/12/08 05:00:47;;;;;;;33.88;16.98;;;-2.20;99.90;;;;;;5031574;28;20025;-49
2022/12/08 05:03:13;;;;;;;32.33;15.27;;;-2.20;99.90;;;;;;5031782;28;20025;-43
2022/12/08 05:05:41;;;;;;;33.13;15.85;;;-2.20;99.90;;;;;;5031581;28;20476;-47
2022/12/08 05:08:07;;;;;;;31.70;15.30;;;-1.60;99.90;;;;;;5031680;28;20045;-47
2022/12/08 05:10:32;;;;;;;34.33;16.17;;;-1.40;99.90;;;;;;5031736;28;20080;-51
2022/12/08 05:12:58;;;;;;;31.30;15.45;;;-2.20;99.90;;;;;;5031707;28;20415;-56
2022/12/08 05:15:24;;;;;;;32.90;15.48;;;-2.10;99.90;;;;;;5031634;28;20049;-55
2022/12/08 05:17:50;;;;;;;30.10;14.77;;;-2.10;99.90;;;;;;5031482;28;20049;-58
2022/12/08 05:20:16;;;;;;;30.95;15.90;;;-2.20;99.90;;;;;;5031703;28;20021;-46
2022/12/08 05:22:41;;;;;;;33.13;16.25;;;-2.10;99.90;;;;;;5031556;28;20042;-57
2022/12/08 05:25:07;;;;;;;34.63;16.13;;;-2.10;99.90;;;;;;5031150;28;20032;-43
2022/12/08 05:27:33;;;;;;;33.88;16.40;;;-2.10;99.90;;;;;;5031373;28;20053;-46
2022/12/08 05:29:58;;;;;;;30.75;17.75;;;-2.10;99.90;;;;;;5031139;28;20188;-51
2022/12/08 05:32:24;;;;;;;33.75;17.42;;;-2.10;99.90;;;;;;5031128;28;20116;-54
2022/12/08 05:34:50;;;;;;;29.98;17.35;;;-2.10;99.90;;;;;;5031132;28;20033;-49
2022/12/08 05:37:16;;;;;;;30.05;15.32;;;-2.20;99.90;;;;;;5031498;28;20021;-47
2022/12/08 05:39:41;;;;;;;32.17;15.77;;;-2.20;99.90;;;;;;5031254;28;20507;-55
2022/12/08 05:42:07;;;;;;;35.80;15.95;;;-2.30;99.90;;;;;;5031096;28;20041;-45
2022/12/08 05:44:33;;;;;;;28.88;15.93;;;-2.40;99.90;;;;;;5031331;28;20018;-48
2022/12/08 05:46:58;;;;;;;30.50;14.93;;;-2.60;99.90;;;;;;5030842;28;20111;-45
2022/12/08 05:49:24;;;;;;;30.83;15.30;;;-3.20;99.90;;;;;;5030978;28;20404;-50
2022/12/08 05:51:49;;;;;;;27.65;15.88;;;-2.70;99.90;;;;;;5030710;28;20096;-48
2022/12/08 05:54:15;;;;;;;29.85;15.02;;;-2.70;99.90;;;;;;5030516;28;20032;-43
2022/12/08 05:56:41;;;;;;;29.08;15.00;;;-2.30;99.90;;;;;;5030680;28;20064;-44
2022/12/08 05:59:07;;;;;;;25.05;13.88;;;-2.40;99.90;;;;;;5030895;28;20109;-51
2022/12/08 06:01:32;;;;;;;28.42;14.25;;;-2.70;99.90;;;;;;5030682;28;20044;-52
2022/12/08 06:04:00;;;;;;;27.98;14.90;;;-2.70;99.90;;;;;;5030759;28;20346;-49
2022/12/08 06:06:27;;;;;;;27.90;14.82;;;-2.70;99.90;;;;;;5030229;28;20087;-41
2022/12/08 06:08:52;;;;;;;33.38;15.38;;;-2.70;99.90;;;;;;5030994;28;20104;-46
2022/12/08 06:11:20;;;;;;;34.80;16.27;;;-2.70;99.90;;;;;;5030996;28;20083;-47
2022/12/08 06:13:47;;;;;;;32.25;15.63;;;-2.70;99.90;;;;;;5044124;28;20029;-49
2022/12/08 06:16:12;;;;;;;30.17;15.05;;;-2.60;99.90;;;;;;5030842;28;20043;-45
2022/12/08 06:18:38;;;;;;;31.65;16.50;;;-2.60;99.90;;;;;;5030808;28;20452;-53
2022/12/08 06:21:09;;;;;;;31.48;15.68;;;-2.60;99.90;;;;;;5031851;28;20041;-41
2022/12/08 06:23:35;;;;;;;34.50;16.17;;;-2.60;99.90;;;;;;5033876;28;20495;-54
2022/12/08 06:26:03;;;;;;;31.25;15.23;;;-2.50;99.90;;;;;;5031821;28;20029;-38
2022/12/08 06:28:30;;;;;;;33.00;15.48;;;-2.50;99.90;;;;;;5040176;28;20025;-39
2022/12/08 06:30:56;;;;;;;32.60;14.85;;;-2.50;99.90;;;;;;5056095;28;20103;-38
2022/12/08 06:33:21;;;;;;;32.42;17.00;;;-2.50;99.90;;;;;;5019354;28;20457;-39
2022/12/08 06:35:47;;;;;;;30.27;16.02;;;-2.50;99.90;;;;;;5032209;28;20033;-38
2022/12/08 06:38:12;;;;;;;31.10;16.48;;;-2.60;99.90;;;;;;5030236;28;20097;-40
2022/12/08 06:40:38;;;;;;;32.75;17.50;;;-2.60;99.90;;;;;;5025993;28;20036;-38
2022/12/08 06:43:04;;;;;;;40.40;20.95;;;-2.60;99.90;;;;;;5017925;28;20403;-39
2022/12/08 06:45:29;;;;;;;32.13;18.05;;;-2.60;99.90;;;;;;5022836;28;20393;-39
2022/12/08 06:47:55;;;;;;;37.45;17.42;;;-2.60;99.90;;;;;;5030200;28;20061;-40
2022/12/08 06:50:20;;;;;;;36.72;21.02;;;-2.60;99.90;;;;;;5030391;28;20025;-38
2022/12/08 06:52:46;;;;;;;38.55;20.83;;;-2.60;99.90;;;;;;5029893;28;20045;-38
2022/12/08 06:55:12;;;;;;;41.15;21.77;;;-2.60;99.90;;;;;;5029948;28;20029;-48
2022/12/08 06:57:37;;;;;;;38.17;21.02;;;-2.60;99.90;;;;;;5030176;28;20451;-52
2022/12/08 07:00:04;;;;;;;40.50;20.65;;;-2.60;99.90;;;;;;5030252;28;20439;-44
2022/12/08 07:02:30;;;;;;;35.30;19.85;;;-2.60;99.90;;;;;;5029942;28;20448;-50
2022/12/08 07:04:56;;;;;;;41.00;21.15;;;-2.60;99.90;;;;;;5030537;28;20028;-43
2022/12/08 07:07:21;;;;;;;37.85;20.92;;;-2.60;99.90;;;;;;5028667;28;22027;-45
2022/12/08 07:09:47;;;;;;;50.47;26.50;;;-2.60;99.90;;;;;;5030153;28;20060;-54
2022/12/08 07:12:12;;;;;;;37.25;19.42;;;-2.50;99.90;;;;;;5029999;28;20101;-45
2022/12/08 07:14:38;;;;;;;32.33;17.38;;;-2.50;99.90;;;;;;5030087;28;20029;-54
2022/12/08 07:17:04;;;;;;;35.00;18.55;;;-2.50;99.90;;;;;;5034710;28;20045;-40
2022/12/08 07:19:30;;;;;;;34.75;18.27;;;-2.50;99.90;;;;;;5033573;28;20028;-50
2022/12/08 07:21:55;;;;;;;44.25;19.33;;;-2.50;99.90;;;;;;5038330;28;20033;-50
2022/12/08 07:24:21;;;;;;;36.35;18.00;;;-2.60;99.90;;;;;;5033396;28;20035;-48
2022/12/08 07:26:47;;;;;;;29.25;15.48;;;-2.50;99.90;;;;;;5039266;28;20061;-40
2022/12/08 07:29:12;;;;;;;29.80;14.98;;;-2.60;99.90;;;;;;5038123;28;20025;-55
2022/12/08 07:31:39;;;;;;;33.92;14.93;;;-2.70;99.90;;;;;;5033712;28;20022;-54
2022/12/08 07:34:04;;;;;;;30.90;16.38;;;-2.70;99.90;;;;;;5033156;28;20451;-52
2022/12/08 07:36:31;;;;;;;29.33;15.73;;;-2.80;99.90;;;;;;5036519;28;20041;-40
2022/12/08 07:38:57;;;;;;;32.25;15.15;;;-2.90;99.90;;;;;;5032844;28;20049;-48
2022/12/08 07:41:24;;;;;;;28.25;15.43;;;-2.90;99.90;;;;;;5036835;28;20049;-40
2022/12/08 07:43:52;;;;;;;28.83;14.70;;;-3.00;99.90;;;;;;5033208;28;20034;-39
2022/12/08 07:46:19;;;;;;;29.83;14.73;;;-3.00;99.90;;;;;;5033053;28;20555;-54
2022/12/08 07:48:45;;;;;;;34.15;16.00;;;-3.00;99.90;;;;;;5033132;28;20028;-45
2022/12/08 07:51:13;;;;;;;33.08;16.80;;;-3.00;99.90;;;;;;5038862;28;20029;-45
2022/12/08 07:53:43;;;;;;;38.65;19.88;;;-3.00;99.90;;;;;;5032486;28;20022;-44
2022/12/08 07:56:10;;;;;;;39.10;20.13;;;-2.90;99.90;;;;;;5032082;28;20025;-48
2022/12/08 07:58:36;;;;;;;40.13;19.38;;;-2.90;99.90;;;;;;5042828;28;20061;-51
2022/12/08 08:01:02;;;;;;;29.13;15.52;;;-2.80;99.90;;;;;;5030449;28;20034;-43
2022/12/08 08:03:28;;;;;;;31.90;15.90;;;-2.80;99.90;;;;;;5032514;28;20025;-40
2022/12/08 08:05:54;;;;;;;28.58;14.85;;;-2.90;99.90;;;;;;5032751;28;20025;-43
2022/12/08 08:08:19;;;;;;;28.73;15.23;;;-3.00;99.90;;;;;;5032224;28;20044;-50
2022/12/08 08:10:46;;;;;;;28.05;15.63;;;-3.00;99.90;;;;;;5032658;28;20028;-50
2022/12/08 08:13:12;;;;;;;29.38;15.63;;;-3.00;99.90;;;;;;5032962;28;20029;-51
2022/12/08 08:15:38;;;;;;;27.65;15.23;;;-3.00;99.90;;;;;;5032748;28;20021;-48
2022/12/08 08:18:04;;;;;;;35.42;15.93;;;-2.90;99.90;;;;;;5032770;28;20037;-49
2022/12/08 08:20:30;;;;;;;32.20;15.27;;;-2.90;99.90;;;;;;5032807;28;20025;-39
2022/12/08 08:22:55;;;;;;;30.80;15.68;;;-2.90;99.90;;;;;;5036629;28;20048;-38
2022/12/08 08:25:21;;;;;;;29.20;15.55;;;-2.90;99.90;;;;;;5050314;28;20443;-40
2022/12/08 08:27:48;;;;;;;33.50;16.55;;;-2.90;99.90;;;;;;5051432;28;20013;-40
2022/12/08 08:30:14;;;;;;;32.67;17.17;;;-2.10;99.90;;;;;;5048726;28;20045;-39
2022/12/08 08:32:40;;;;;;;34.33;17.60;;;-2.00;99.90;;;;;;5047960;28;20024;-40
2022/12/08 08:35:06;;;;;;;32.25;18.15;;;-0.80;99.90;;;;;;5049708;28;20025;-39
2022/12/08 08:37:32;;;;;;;33.88;17.65;;;0.50;99.90;;;;;;5039960;28;20025;-37
2022/12/08 08:39:57;;;;;;;31.20;16.67;;;1.80;99.90;;;;;;5033669;28;20113;-40
2022/12/08 08:42:23;;;;;;;26.05;14.77;;;3.10;99.90;;;;;;5033545;28;20436;-39
2022/12/08 08:44:49;;;;;;;25.45;14.23;;;4.40;99.90;;;;;;5032001;28;20491;-41
2022/12/08 08:47:14;;;;;;;25.20;14.68;;;5.40;99.90;;;;;;5038550;28;20033;-46
2022/12/08 08:49:40;;;;;;;25.67;14.75;;;6.60;99.90;;;;;;5044974;28;20119;-41
2022/12/08 08:52:06;;;;;;;27.33;15.10;;;7.20;99.90;;;;;;5046166;28;20028;-39
2022/12/08 08:54:32;;;;;;;36.05;17.08;;;6.80;99.90;;;;;;5047217;28;20418;-42
2022/12/08 08:56:59;;;;;;;29.58;14.63;;;6.00;99.90;;;;;;5046734;28;20436;-40
2022/12/08 08:59:26;;;;;;;29.63;15.25;;;5.00;99.90;;;;;;5045508;28;20044;-42
2022/12/08 09:01:52;;;;;;;25.17;14.63;;;4.00;99.90;;;;;;5034312;28;20119;-43
2022/12/08 09:04:18;;;;;;;24.33;14.82;;;3.10;99.90;;;;;;5035021;28;20028;-43
2022/12/08 09:06:44;;;;;;;23.33;14.20;;;2.30;99.90;;;;;;5034280;28;20052;-42
2022/12/08 09:09:10;;;;;;;24.85;13.38;;;1.80;99.90;;;;;;5030030;28;20233;-42
2022/12/08 09:11:36;;;;;;;22.42;13.90;;;1.50;99.90;;;;;;5041333;28;20036;-42
2022/12/08 09:14:02;;;;;;;26.73;14.27;;;1.10;99.90;;;;;;5038933;28;20025;-43
2022/12/08 09:16:28;;;;;;;23.83;14.13;;;1.00;99.90;;;;;;5031818;28;20030;-42
2022/12/08 09:18:54;;;;;;;25.08;14.32;;;0.90;99.90;;;;;;5038109;28;20052;-38
2022/12/08 09:21:23;;;;;;;24.23;13.52;;;0.70;99.90;;;;;;5037963;28;20499;-38
2022/12/08 09:23:51;;;;;;;24.92;13.15;;;0.50;99.90;;;;;;5032659;28;20032;-40
2022/12/08 09:26:17;;;;;;;30.35;14.27;;;0.20;99.90;;;;;;5040145;28;20021;-39
2022/12/08 09:28:45;;;;;;;26.20;13.38;;;0.00;99.90;;;;;;5037125;28;20030;-39
2022/12/08 09:31:12;;;;;;;22.85;13.27;;;0.00;99.90;;;;;;5036834;28;20029;-39
2022/12/08 09:33:38;;;;;;;23.38;13.52;;;-0.10;99.90;;;;;;5038399;28;20031;-42
2022/12/08 09:36:04;;;;;;;24.88;13.85;;;0.00;99.90;;;;;;5038417;28;20124;-38
2022/12/08 09:38:31;;;;;;;27.05;14.05;;;-0.10;99.90;;;;;;5034844;28;20116;-38
2022/12/08 09:40:57;;;;;;;23.05;12.88;;;0.00;99.90;;;;;;5032657;28;20041;-38
2022/12/08 09:43:46;;;;;;;25.48;13.27;;;0.10;99.90;;;;;;5033641;28;20033;-49
2022/12/08 09:46:16;;;;;;;28.02;14.02;;;0.20;99.90;;;;;;5032801;28;20108;-40
2022/12/08 09:48:50;;;;;;;27.85;13.00;;;0.20;99.90;;;;;;5029792;28;20033;-44
2022/12/08 09:51:16;;;;;;;27.10;13.82;;;0.40;99.90;;;;;;5031472;28;20029;-49
2022/12/08 09:53:47;;;;;;;26.20;15.05;;;0.40;99.90;;;;;;5019717;28;20037;-44
2022/12/08 09:56:17;;;;;;;29.48;15.02;;;0.40;99.90;;;;;;5029448;28;20069;-49
2022/12/08 09:58:51;;;;;;;28.75;15.18;;;0.60;99.90;;;;;;5017690;28;20028;-48
2022/12/08 10:01:21;;;;;;;29.02;16.00;;;0.60;99.90;;;;;;5016686;28;20098;-49
2022/12/08 10:03:47;;;;;;;32.40;14.98;;;0.80;99.90;;;;;;5027853;28;20033;-41
2022/12/08 10:06:28;;;;;;;29.88;13.68;;;1.80;99.90;;;;;;5027320;28;20391;-39
2022/12/08 10:09:22;;;;;;;23.33;12.70;;;4.00;99.90;;;;;;5023743;28;20037;-39
2022/12/08 10:12:07;;;;;;;22.55;12.85;;;7.40;99.90;;;;;;5028501;28;20584;-51
2022/12/08 10:14:32;;;;;;;19.83;11.50;;;10.00;98.90;;;;;;5028886;28;20086;-41
2022/12/08 10:17:07;;;;;;;18.65;11.30;;;11.40;95.10;;;;;;5028778;28;20025;-45
2022/12/08 10:19:33;;;;;;;19.70;12.00;;;11.10;90.50;;;;;;5029908;28;20033;-39
2022/12/08 10:22:00;;;;;;;22.65;12.20;;;9.90;89.30;;;;;;5030508;28;20033;-41
2022/12/08 10:24:42;;;;;;;21.17;13.35;;;8.00;91.20;;;;;;5030823;28;20025;-39
2022/12/08 10:27:12;;;;;;;19.55;12.38;;;6.60;93.80;;;;;;5030745;28;20025;-42
2022/12/08 10:29:39;;;;;;;26.08;13.68;;;5.90;96.00;;;;;;5030661;28;20017;-45
2022/12/08 10:32:20;;;;;;;20.52;12.57;;;5.80;97.90;;;;;;5030434;28;20041;-44
2022/12/08 10:35:01;;;;;;;18.83;11.30;;;8.00;98.30;;;;;;5030728;28;20021;-41
2022/12/08 10:37:27;;;;;;;17.05;10.60;;;10.60;94.30;;;;;;5030420;28;20021;-42
2022/12/08 10:40:01;;;;;;;15.60;10.45;;;12.70;89.80;;;;;;5035342;28;20101;-46
2022/12/08 10:42:34;;;;;;;19.25;11.57;;;14.30;79.40;;;;;;5033709;28;20041;-48
2022/12/08 10:45:14;;;;;;;15.63;10.93;;;15.80;79.10;;;;;;5029770;28;20560;-40
2022/12/08 10:47:42;;;;;;;15.80;11.20;;;17.10;70.80;;;;;;5026666;28;20030;-46
2022/12/08 10:50:30;;;;;;;18.05;11.15;;;17.70;65.10;;;;;;5027989;28;20449;-43
2022/12/08 10:53:19;;;;;;;16.58;10.82;;;17.90;64.30;;;;;;5032427;28;20110;-41
2022/12/08 10:55:49;;;;;;;15.00;10.93;;;18.20;60.80;;;;;;5042807;28;20108;-44
2022/12/08 10:58:39;;;;;;;13.65;10.10;;;18.50;59.80;;;;;;5041490;28;20049;-44
2022/12/08 11:01:20;;;;;;;15.50;11.55;;;19.00;58.10;;;;;;5026331;28;20025;-44
2022/12/08 11:03:59;;;;;;;16.17;11.95;;;18.70;57.80;;;;;;5033892;28;20033;-42
2022/12/08 11:06:28;;;;;;;17.33;12.82;;;18.90;57.80;;;;;;5051042;28;20483;-41
2022/12/08 11:08:54;;;;;;;17.90;13.55;;;19.00;57.10;;;;;;5046435;28;20099;-41
2022/12/08 11:11:21;;;;;;;17.25;12.98;;;19.80;55.00;;;;;;5039553;28;20040;-48
2022/12/08 11:13:50;;;;;;;20.30;13.60;;;20.20;54.80;;;;;;5033618;28;20468;-44
2022/12/08 11:16:17;;;;;;;14.18;11.90;;;19.90;51.40;;;;;;5033228;28;20029;-45
2022/12/08 11:18:46;;;;;;;17.77;13.75;;;20.10;53.20;;;;;;5032634;28;20433;-38
2022/12/08 11:21:16;;;;;;;;;;;19.70;52.70;;;;;;5037827;28;20491;-42
2022/12/08 11:23:46;;;;;;;15.77;11.80;;;19.90;51.80;;;;;;5049555;28;20271;-43
2022/12/08 11:26:25;;;;;;;18.08;12.35;;;19.70;53.50;;;;;;5022770;28;20025;-46
2022/12/08 11:28:50;;;;;;;17.42;12.00;;;19.70;52.30;;;;;;5033389;28;20042;-44
2022/12/08 11:31:30;;;;;;;16.80;12.63;;;19.50;50.60;;;;;;5033656;28;20400;-44
2022/12/08 11:33:56;;;;;;;17.63;11.80;;;19.10;53.50;;;;;;5034632;28;20306;-41
2022/12/08 11:36:27;;;;;;;13.98;11.18;;;19.30;53.00;;;;;;5020687;28;20512;-43
2022/12/08 11:38:58;;;;;;;14.95;10.43;;;19.50;50.50;;;;;;5033428;28;20554;-41
2022/12/08 11:41:36;;;;;;;14.43;11.38;;;20.30;51.70;;;;;;5032894;28;20041;-40
2022/12/08 11:44:12;;;;;;;14.43;10.93;;;20.20;50.10;;;;;;5033355;28;20445;-40
2022/12/08 11:46:57;;;;;;;16.13;11.52;;;20.40;48.40;;;;;;5035010;28;20037;-42
2022/12/08 11:49:31;;;;;;;17.30;10.85;;;19.50;51.80;;;;;;5045213;28;20017;-40
2022/12/08 11:52:04;;;;;;;17.88;11.38;;;19.00;51.60;;;;;;5048532;28;20025;-45
2022/12/08 11:54:34;;;;;;;16.10;11.30;;;18.90;52.20;;;;;;5051740;28;20100;-43
2022/12/08 11:57:03;;;;;;;16.85;12.18;;;18.60;51.60;;;;;;5042265;28;20049;-40
2022/12/08 11:59:35;;;;;;;18.08;11.73;;;18.00;55.60;;;;;;5049300;28;20020;-47
2022/12/08 12:02:03;;;;;;;15.85;11.50;;;18.70;53.70;;;;;;5038194;28;20484;-42
2022/12/08 12:04:38;;;;;;;15.95;12.32;;;19.40;51.50;;;;;;5031944;28;20491;-47
2022/12/08 12:07:14;;;;;;;13.45;10.75;;;18.70;50.90;;;;;;5044707;28;20028;-42
2022/12/08 12:09:51;;;;;;;17.08;11.27;;;18.50;52.30;;;;;;5033716;28;20017;-44
2022/12/08 12:12:23;;;;;;;16.02;10.90;;;19.70;51.60;;;;;;5028067;28;20627;-42
2022/12/08 12:14:59;;;;;;;13.48;10.13;;;20.40;49.60;;;;;;5063766;28;20041;-41
2022/12/08 12:17:31;;;;;;;13.48;10.02;;;20.20;50.70;;;;;;5035241;28;20024;-44
2022/12/08 12:20:03;;;;;;;14.70;10.43;;;20.50;49.50;;;;;;5032694;28;20033;-42
2022/12/08 12:22:34;;;;;;;13.52;10.68;;;21.00;48.50;;;;;;5032348;28;20033;-39
2022/12/08 12:25:01;;;;;;;14.43;10.75;;;20.60;47.70;;;;;;5032450;28;20497;-39
2022/12/08 12:27:38;;;;;;;16.20;11.60;;;19.40;50.40;;;;;;5032412;28;20024;-40
2022/12/08 12:30:07;;;;;;;15.35;10.35;;;18.60;50.90;;;;;;5032381;28;20089;-42
2022/12/08 12:32:44;;;;;;;;;;;19.00;52.30;;;;;;5031101;28;20032;-42
2022/12/08 12:35:18;;;;;;;15.55;10.23;;;18.80;50.60;;;;;;5033980;28;19976;-40
2022/12/08 12:37:44;;;;;;;15.55;10.45;;;18.00;52.70;;;;;;5042343;28;20020;-43
2022/12/08 12:40:26;;;;;;;15.43;10.93;;;17.60;52.90;;;;;;5031854;28;20037;-41
2022/12/08 12:42:54;;;;;;;15.57;10.93;;;17.50;53.10;;;;;;5027311;28;20044;-49
2022/12/08 12:45:20;;;;;;;14.45;10.57;;;17.40;53.30;;;;;;5033501;28;20025;-52